createdAt,value
2018-07-26T00:01:53.346Z,18.31
2018-07-26T00:04:23.143Z,18.37
2018-07-26T00:06:53.147Z,18.45
2018-07-26T00:09:22.748Z,18.64
2018-07-26T00:11:52.494Z,18.63
2018-07-26T00:14:22.440Z,18.56
2018-07-26T00:16:52.384Z,18.50
2018-07-26T00:19:22.096Z,18.53
2018-07-26T00:21:52.154Z,18.49
2018-07-26T00:24:21.828Z,18.56
2018-07-26T00:26:51.658Z,18.56
2018-07-26T00:29:21.248Z,18.65
2018-07-26T00:31:51.132Z,18.52
2018-07-26T00:34:21.130Z,18.53
2018-07-26T00:36:50.926Z,18.56
2018-07-26T00:39:20.706Z,18.64
2018-07-26T00:41:50.441Z,18.62
2018-07-26T00:44:20.335Z,18.65
2018-07-26T00:46:50.104Z,18.61
2018-07-26T00:49:19.971Z,18.62
2018-07-26T00:51:49.946Z,18.61
2018-07-26T00:54:19.503Z,18.52
2018-07-26T00:56:49.197Z,18.56
2018-07-26T00:59:18.802Z,18.67
2018-07-26T01:01:48.509Z,18.66
2018-07-26T01:04:18.374Z,18.64
2018-07-26T01:06:48.077Z,18.53
2018-07-26T01:09:18.100Z,18.51
2018-07-26T01:11:47.774Z,18.83
2018-07-26T01:14:17.714Z,18.69
2018-07-26T01:16:47.497Z,18.64
2018-07-26T01:19:17.414Z,18.77
2018-07-26T01:21:47.333Z,18.77
2018-07-26T01:24:17.016Z,18.77
2018-07-26T01:26:46.642Z,18.74
2018-07-26T01:29:18.972Z,18.70
2018-07-26T01:31:51.426Z,18.67
2018-07-26T01:34:21.817Z,18.65
2018-07-26T01:36:51.602Z,18.68
2018-07-26T01:39:21.163Z,18.59
2018-07-26T01:41:51.362Z,18.78
2018-07-26T01:44:25.439Z,18.58
2018-07-26T01:46:55.363Z,18.66
2018-07-26T01:49:25.102Z,18.70
2018-07-26T01:51:55.119Z,18.81
2018-07-26T01:54:24.664Z,18.81
2018-07-26T01:56:54.655Z,18.77
2018-07-26T01:59:24.472Z,18.77
2018-07-26T02:01:54.327Z,18.73
2018-07-26T02:04:24.319Z,18.83
2018-07-26T02:06:54.038Z,18.80
2018-07-26T02:09:23.640Z,18.87
2018-07-26T02:11:53.291Z,18.89
2018-07-26T02:14:28.135Z,18.84
2018-07-26T02:16:58.264Z,18.78
2018-07-26T02:19:28.032Z,18.87
2018-07-26T02:21:57.789Z,18.82
2018-07-26T02:24:27.456Z,18.63
2018-07-26T02:26:57.260Z,18.52
2018-07-26T02:29:26.962Z,18.55
2018-07-26T02:31:56.547Z,18.56
2018-07-26T02:34:26.140Z,18.52
2018-07-26T02:36:55.918Z,18.39
2018-07-26T02:39:25.806Z,18.42
2018-07-26T02:41:55.380Z,18.32
2018-07-26T02:44:24.959Z,18.37
2018-07-26T02:46:54.590Z,18.26
2018-07-26T02:49:24.801Z,18.16
2018-07-26T02:51:54.351Z,18.13
2018-07-26T02:54:24.096Z,18.18
2018-07-26T02:56:53.958Z,18.26
2018-07-26T02:59:23.933Z,18.16
2018-07-26T03:01:53.699Z,18.09
2018-07-26T03:04:23.528Z,18.20
2018-07-26T03:06:53.290Z,18.19
2018-07-26T03:09:22.925Z,18.25
2018-07-26T03:11:52.551Z,18.33
2018-07-26T03:14:22.508Z,18.32
2018-07-26T03:16:52.288Z,18.40
2018-07-26T03:19:21.874Z,18.35
2018-07-26T03:21:51.672Z,18.30
2018-07-26T03:24:21.391Z,18.38
2018-07-26T03:26:51.285Z,18.48
2018-07-26T03:29:21.111Z,18.66
2018-07-26T03:31:50.860Z,18.59
2018-07-26T03:34:20.592Z,18.60
2018-07-26T03:36:50.491Z,18.64
2018-07-26T03:39:20.242Z,18.87
2018-07-26T03:41:49.974Z,19.04
2018-07-26T03:44:19.841Z,18.84
2018-07-26T03:46:49.426Z,18.81
2018-07-26T03:49:19.085Z,18.79
2018-07-26T03:51:48.678Z,18.68
2018-07-26T03:54:18.434Z,18.67
2018-07-26T03:56:48.110Z,18.60
2018-07-26T03:59:17.884Z,18.58
2018-07-26T04:01:47.453Z,18.57
2018-07-26T04:04:16.976Z,18.69
2018-07-26T04:06:46.886Z,18.82
2018-07-26T04:09:16.843Z,18.84
2018-07-26T04:11:47.095Z,18.82
2018-07-26T04:14:16.868Z,18.86
2018-07-26T04:16:46.595Z,19.05
2018-07-26T04:19:16.182Z,19.17
2018-07-26T04:21:45.951Z,19.24
2018-07-26T04:24:15.459Z,19.28
2018-07-26T04:26:45.287Z,19.18
2018-07-26T04:29:15.047Z,19.29
2018-07-26T04:31:44.875Z,19.48
2018-07-26T04:34:14.743Z,19.68
2018-07-26T04:36:44.539Z,19.86
2018-07-26T04:39:14.501Z,19.82
2018-07-26T04:41:44.086Z,19.96
2018-07-26T04:44:13.961Z,20.19
2018-07-26T04:46:43.727Z,20.59
2018-07-26T04:49:13.469Z,20.57
2018-07-26T04:51:43.118Z,20.67
2018-07-26T04:54:12.775Z,20.86
2018-07-26T04:56:42.458Z,20.96
2018-07-26T04:59:12.206Z,21.02
2018-07-26T05:01:41.827Z,20.99
2018-07-26T05:04:11.727Z,20.95
2018-07-26T05:06:41.215Z,20.63
2018-07-26T05:09:12.280Z,20.65
2018-07-26T05:11:42.118Z,20.84
2018-07-26T05:14:12.038Z,21.01
2018-07-26T05:16:41.733Z,21.13
2018-07-26T05:19:11.377Z,21.26
2018-07-26T05:21:40.885Z,21.19
2018-07-26T05:24:11.022Z,21.34
2018-07-26T05:26:40.569Z,21.37
2018-07-26T05:29:10.152Z,21.40
2018-07-26T05:31:39.953Z,21.10
2018-07-26T05:34:10.120Z,21.01
2018-07-26T05:36:40.148Z,21.15
2018-07-26T05:39:11.567Z,21.22
2018-07-26T05:41:41.998Z,21.50
2018-07-26T05:44:11.690Z,21.12
2018-07-26T05:46:41.326Z,21.13
2018-07-26T05:49:11.126Z,21.43
2018-07-26T05:51:41.010Z,21.60
2018-07-26T05:54:10.776Z,21.80
2018-07-26T05:56:40.584Z,21.89
2018-07-26T05:59:10.284Z,21.71
2018-07-26T06:01:40.164Z,21.81
2018-07-26T06:04:09.790Z,21.72
2018-07-26T06:06:39.701Z,21.60
2018-07-26T06:09:11.240Z,21.60
2018-07-26T06:11:41.618Z,21.89
2018-07-26T06:14:11.388Z,21.99
2018-07-26T06:16:41.309Z,22.26
2018-07-26T06:19:11.327Z,22.06
2018-07-26T06:21:41.060Z,21.91
2018-07-26T06:24:10.791Z,22.00
2018-07-26T06:26:40.614Z,21.93
2018-07-26T06:29:10.545Z,22.15
2018-07-26T06:31:40.167Z,22.40
2018-07-26T06:34:10.190Z,22.04
2018-07-26T06:36:39.983Z,22.02
2018-07-26T06:39:12.063Z,22.06
2018-07-26T06:41:42.304Z,21.89
2018-07-26T06:44:12.199Z,22.00
2018-07-26T06:46:42.114Z,22.13
2018-07-26T06:49:12.050Z,22.50
2018-07-26T06:51:41.719Z,22.48
2018-07-26T06:54:11.391Z,22.29
2018-07-26T06:56:41.105Z,22.29
2018-07-26T06:59:11.504Z,22.79
2018-07-26T07:01:41.123Z,22.69
2018-07-26T07:04:10.794Z,22.67
2018-07-26T07:06:40.334Z,23.35
2018-07-26T07:09:12.163Z,23.46
2018-07-26T07:11:42.063Z,23.20
2018-07-26T07:14:11.631Z,23.34
2018-07-26T07:16:41.259Z,23.48
2018-07-26T07:19:11.047Z,23.96
2018-07-26T07:21:41.000Z,24.01
2018-07-26T07:24:14.888Z,24.10
2018-07-26T07:26:44.844Z,24.23
2018-07-26T07:29:15.027Z,24.26
2018-07-26T07:31:44.914Z,23.87
2018-07-26T07:34:14.865Z,23.84
2018-07-26T07:36:44.562Z,24.21
2018-07-26T07:39:14.905Z,24.34
2018-07-26T07:41:44.430Z,24.53
2018-07-26T07:44:14.154Z,24.64
2018-07-26T07:46:43.979Z,25.29
2018-07-26T07:49:13.725Z,25.32
2018-07-26T07:51:43.430Z,25.56
2018-07-26T07:54:13.179Z,25.75
2018-07-26T07:56:42.981Z,25.94
2018-07-26T07:59:12.787Z,26.26
2018-07-26T08:01:42.714Z,26.35
2018-07-26T08:04:12.491Z,26.76
2018-07-26T08:06:42.081Z,26.80
2018-07-26T08:09:12.435Z,27.07
2018-07-26T08:11:42.058Z,27.26
2018-07-26T08:14:11.663Z,27.64
2018-07-26T08:16:41.312Z,27.82
2018-07-26T08:19:10.920Z,27.98
2018-07-26T08:21:40.871Z,28.12
2018-07-26T08:24:10.471Z,28.49
2018-07-26T08:26:40.386Z,28.48
2018-07-26T08:29:10.275Z,28.42
2018-07-26T08:31:40.227Z,28.20
2018-07-26T08:34:10.002Z,28.27
2018-07-26T08:36:39.895Z,28.22
2018-07-26T08:39:11.367Z,27.85
2018-07-26T08:41:41.167Z,27.95
2018-07-26T08:44:10.780Z,28.11
2018-07-26T08:46:40.842Z,28.31
2018-07-26T08:49:10.572Z,28.22
2018-07-26T08:51:40.574Z,28.38
2018-07-26T08:54:10.426Z,28.64
2018-07-26T08:56:40.311Z,28.80
2018-07-26T08:59:10.218Z,28.84
2018-07-26T09:01:40.007Z,29.16
2018-07-26T09:04:09.646Z,29.41
2018-07-26T09:06:39.503Z,29.28
2018-07-26T09:09:11.639Z,29.33
2018-07-26T09:11:41.360Z,29.26
2018-07-26T09:14:10.997Z,29.37
2018-07-26T09:16:41.188Z,29.32
2018-07-26T09:19:10.796Z,28.92
2018-07-26T09:21:40.910Z,29.12
2018-07-26T09:24:10.831Z,29.33
2018-07-26T09:26:40.764Z,29.03
2018-07-26T09:29:10.508Z,28.75
2018-07-26T09:31:40.695Z,28.93
2018-07-26T09:34:11.457Z,28.90
2018-07-26T09:36:41.206Z,29.13
2018-07-26T09:39:13.803Z,29.24
2018-07-26T09:41:43.570Z,29.49
2018-07-26T09:44:13.249Z,29.55
2018-07-26T09:46:43.453Z,29.51
2018-07-26T09:49:14.752Z,29.29
2018-07-26T09:51:44.729Z,29.50
2018-07-26T09:54:14.462Z,29.48
2018-07-26T09:56:45.367Z,29.71
2018-07-26T09:59:15.063Z,29.71
2018-07-26T10:01:45.942Z,29.94
2018-07-26T10:04:15.494Z,29.92
2018-07-26T10:06:45.263Z,30.11
2018-07-26T10:09:15.209Z,30.40
2018-07-26T10:11:45.150Z,30.49
2018-07-26T10:14:14.936Z,30.19
2018-07-26T10:16:44.548Z,30.49
2018-07-26T10:19:14.639Z,30.90
2018-07-26T10:21:44.854Z,31.12
2018-07-26T10:24:14.854Z,30.84
2018-07-26T10:26:45.112Z,31.23
2018-07-26T10:29:15.047Z,31.11
2018-07-26T10:31:45.106Z,31.14
2018-07-26T10:34:15.526Z,31.94
2018-07-26T10:36:45.601Z,32.15
2018-07-26T10:39:15.651Z,32.37
2018-07-26T10:41:45.476Z,32.63
2018-07-26T10:44:16.440Z,32.98
2018-07-26T10:46:46.048Z,33.22
2018-07-26T10:49:15.684Z,33.26
2018-07-26T10:51:45.383Z,33.44
2018-07-26T10:54:15.000Z,33.37
2018-07-26T10:56:44.678Z,33.00
2018-07-26T10:59:14.487Z,32.80
2018-07-26T11:01:44.204Z,32.79
2018-07-26T11:04:13.999Z,32.41
2018-07-26T11:06:44.076Z,32.14
2018-07-26T11:09:13.729Z,31.48
2018-07-26T11:11:43.649Z,31.54
2018-07-26T11:14:13.533Z,31.86
2018-07-26T11:16:43.414Z,31.67
2018-07-26T11:19:13.196Z,30.61
2018-07-26T11:21:42.932Z,30.01
2018-07-26T11:24:12.628Z,29.62
2018-07-26T11:26:42.468Z,29.26
2018-07-26T11:29:13.656Z,28.68
2018-07-26T11:31:44.131Z,28.48
2018-07-26T11:34:15.113Z,28.24
2018-07-26T11:36:47.090Z,28.04
2018-07-26T11:39:17.018Z,28.59
2018-07-26T11:41:47.010Z,28.59
2018-07-26T11:44:17.506Z,28.88
2018-07-26T11:46:47.996Z,28.99
2018-07-26T11:49:18.558Z,28.74
2018-07-26T11:51:49.251Z,28.63
2018-07-26T11:54:20.010Z,28.77
2018-07-26T11:56:51.565Z,28.56
2018-07-26T11:59:23.007Z,28.56
2018-07-26T12:01:53.616Z,28.45
2018-07-26T12:04:23.411Z,28.19
2018-07-26T12:06:53.407Z,27.89
2018-07-26T12:09:23.481Z,27.85
2018-07-26T12:11:53.180Z,27.92
2018-07-26T12:14:23.240Z,28.06
2018-07-26T12:16:53.090Z,28.22
2018-07-26T12:19:22.826Z,28.30
2018-07-26T12:21:59.074Z,28.37
2018-07-26T12:24:28.646Z,28.30
2018-07-26T12:26:58.268Z,28.50
2018-07-26T12:29:27.874Z,28.57
2018-07-26T12:31:57.728Z,28.74
2018-07-26T12:34:27.868Z,28.78
2018-07-26T12:36:58.276Z,28.59
2018-07-26T12:39:28.099Z,28.76
2018-07-26T12:41:57.963Z,28.76
2018-07-26T12:44:27.651Z,28.83
2018-07-26T12:46:57.367Z,28.54
2018-07-26T12:49:27.138Z,28.51
2018-07-26T12:51:56.829Z,28.42
2018-07-26T12:54:26.699Z,28.45
2018-07-26T12:56:56.354Z,28.52
2018-07-26T12:59:26.031Z,28.60
2018-07-26T13:01:55.683Z,28.66
2018-07-26T13:04:25.354Z,28.67
2018-07-26T13:06:55.050Z,28.78
2018-07-26T13:09:25.008Z,28.82
2018-07-26T13:11:54.563Z,28.87
2018-07-26T13:14:24.538Z,28.92
2018-07-26T13:16:54.642Z,28.98
2018-07-26T13:19:24.398Z,29.07
2018-07-26T13:21:54.187Z,28.85
2018-07-26T13:24:24.194Z,28.60
2018-07-26T13:26:53.959Z,28.45
2018-07-26T13:29:23.883Z,28.51
2018-07-26T13:31:53.495Z,28.40
2018-07-26T13:34:24.622Z,28.62
2018-07-26T13:36:56.148Z,28.70
2018-07-26T13:39:25.963Z,28.66
2018-07-26T13:41:57.074Z,28.87
2018-07-26T13:44:26.962Z,29.18
2018-07-26T13:46:57.349Z,29.34
2018-07-26T13:49:26.992Z,29.37
2018-07-26T13:51:56.735Z,29.39
2018-07-26T13:54:26.582Z,28.98
2018-07-26T13:56:56.769Z,28.81
2018-07-26T13:59:26.314Z,28.18
2018-07-26T14:01:56.085Z,28.15
2018-07-26T14:04:26.147Z,27.39
2018-07-26T14:06:56.025Z,27.91
2018-07-26T14:09:26.132Z,28.25
2018-07-26T14:11:56.242Z,28.24
2018-07-26T14:14:26.224Z,28.37
2018-07-26T14:16:56.162Z,28.04
2018-07-26T14:19:26.155Z,27.93
2018-07-26T14:21:55.967Z,28.19
2018-07-26T14:24:26.214Z,28.24
2018-07-26T14:26:56.003Z,27.91
2018-07-26T14:29:25.822Z,27.83
2018-07-26T14:31:55.447Z,28.02
2018-07-26T14:34:25.716Z,28.22
2018-07-26T14:36:55.628Z,28.25
2018-07-26T14:39:25.493Z,28.05
2018-07-26T14:41:55.052Z,28.22
2018-07-26T14:44:25.165Z,27.90
2018-07-26T14:46:55.546Z,28.01
2018-07-26T14:49:25.495Z,28.27
2018-07-26T14:51:55.364Z,28.18
2018-07-26T14:54:25.283Z,28.24
2018-07-26T14:56:54.965Z,27.64
2018-07-26T14:59:24.489Z,27.37
2018-07-26T15:01:54.595Z,26.83
2018-07-26T15:04:24.419Z,26.56
2018-07-26T15:06:54.300Z,26.06
2018-07-26T15:09:24.102Z,26.43
2018-07-26T15:11:53.922Z,26.05
2018-07-26T15:14:24.089Z,25.97
2018-07-26T15:16:53.921Z,25.83
2018-07-26T15:19:23.735Z,25.51
2018-07-26T15:21:53.761Z,25.27
2018-07-26T15:24:23.958Z,25.26
2018-07-26T15:26:53.635Z,25.52
2018-07-26T15:29:23.295Z,25.38
2018-07-26T15:31:52.903Z,25.09
2018-07-26T15:34:22.839Z,24.99
2018-07-26T15:36:52.689Z,25.00
2018-07-26T15:39:22.511Z,24.84
2018-07-26T15:41:52.033Z,25.16
2018-07-26T15:44:21.802Z,24.97
2018-07-26T15:46:51.700Z,24.92
2018-07-26T15:49:21.640Z,25.02
2018-07-26T15:51:51.636Z,24.98
2018-07-26T15:54:21.655Z,24.91
2018-07-26T15:56:51.170Z,24.85
2018-07-26T15:59:20.801Z,25.04
2018-07-26T16:01:50.424Z,24.99
2018-07-26T16:04:20.358Z,25.13
2018-07-26T16:06:50.199Z,25.18
2018-07-26T16:09:19.819Z,25.55
2018-07-26T16:11:49.808Z,25.77
2018-07-26T16:14:19.400Z,25.91
2018-07-26T16:16:49.030Z,26.07
2018-07-26T16:19:19.150Z,26.08
2018-07-26T16:21:49.196Z,26.43
2018-07-26T16:24:19.806Z,26.70
2018-07-26T16:26:49.374Z,26.69
2018-07-26T16:29:18.957Z,26.34
2018-07-26T16:31:48.658Z,26.05
2018-07-26T16:34:18.587Z,26.64
2018-07-26T16:36:48.346Z,26.81
2018-07-26T16:39:18.310Z,26.54
2018-07-26T16:41:48.131Z,26.30
2018-07-26T16:44:18.035Z,26.22
2018-07-26T16:46:48.191Z,26.07
2018-07-26T16:49:17.719Z,26.20
2018-07-26T16:51:47.720Z,26.39
2018-07-26T16:54:17.813Z,26.66
2018-07-26T16:56:47.616Z,26.16
2018-07-26T16:59:17.439Z,26.90
2018-07-26T17:01:47.028Z,27.03
2018-07-26T17:04:16.859Z,27.15
2018-07-26T17:06:46.539Z,27.04
2018-07-26T17:09:16.438Z,26.84
2018-07-26T17:11:46.630Z,26.92
2018-07-26T17:14:16.649Z,27.18
2018-07-26T17:16:46.429Z,27.13
2018-07-26T17:19:16.368Z,26.85
2018-07-26T17:21:46.592Z,26.81
2018-07-26T17:24:16.385Z,26.84
2018-07-26T17:26:46.535Z,26.39
2018-07-26T17:29:16.376Z,26.70
2018-07-26T17:31:46.803Z,26.60
2018-07-26T17:34:16.718Z,25.86
2018-07-26T17:36:46.615Z,25.70
2018-07-26T17:39:16.740Z,25.85
2018-07-26T17:41:52.006Z,25.83
2018-07-26T17:44:22.101Z,25.67
2018-07-26T17:46:51.795Z,25.36
2018-07-26T17:49:21.782Z,25.46
2018-07-26T17:51:51.806Z,25.38
2018-07-26T17:54:21.474Z,25.18
2018-07-26T17:56:51.682Z,25.22
2018-07-26T17:59:21.322Z,24.85
2018-07-26T18:01:51.107Z,24.62
2018-07-26T18:04:20.946Z,24.45
2018-07-26T18:06:50.561Z,24.26
2018-07-26T18:09:20.350Z,24.20
2018-07-26T18:11:50.220Z,24.32
2018-07-26T18:14:20.019Z,24.08
2018-07-26T18:16:49.934Z,23.78
2018-07-26T18:19:19.946Z,23.56
2018-07-26T18:21:49.946Z,23.65
2018-07-26T18:24:19.674Z,23.78
2018-07-26T18:26:49.206Z,24.01
2018-07-26T18:29:18.881Z,24.04
2018-07-26T18:31:48.938Z,23.98
2018-07-26T18:34:18.630Z,23.84
2018-07-26T18:36:48.512Z,23.70
2018-07-26T18:39:18.351Z,23.35
2018-07-26T18:41:47.994Z,23.20
2018-07-26T18:44:17.611Z,23.29
2018-07-26T18:46:47.450Z,23.52
2018-07-26T18:49:17.609Z,23.53
2018-07-26T18:51:47.231Z,23.44
2018-07-26T18:54:17.162Z,23.41
2018-07-26T18:56:46.729Z,23.40
2018-07-26T18:59:16.322Z,23.29
2018-07-26T19:01:45.986Z,23.11
2018-07-26T19:04:15.718Z,23.16
2018-07-26T19:06:45.467Z,23.06
2018-07-26T19:09:15.258Z,23.15
2018-07-26T19:11:45.593Z,22.70
2018-07-26T19:14:15.291Z,22.77
2018-07-26T19:16:45.295Z,22.87
2018-07-26T19:19:15.162Z,22.98
2018-07-26T19:21:44.912Z,22.79
2018-07-26T19:24:14.946Z,22.67
2018-07-26T19:26:44.507Z,22.50
2018-07-26T19:29:14.177Z,22.55
2018-07-26T19:31:44.431Z,22.73
2018-07-26T19:34:14.234Z,22.45
2018-07-26T19:36:43.990Z,22.26
2018-07-26T19:39:14.314Z,22.14
2018-07-26T19:41:44.286Z,22.09
2018-07-26T19:44:13.974Z,21.94
2018-07-26T19:46:43.526Z,21.89
2018-07-26T19:49:13.342Z,22.00
2018-07-26T19:51:43.151Z,21.87
2018-07-26T19:54:13.009Z,21.89
2018-07-26T19:56:42.663Z,21.70
2018-07-26T19:59:12.350Z,21.68
2018-07-26T20:01:42.435Z,21.40
2018-07-26T20:04:12.565Z,21.37
2018-07-26T20:06:42.258Z,21.30
2018-07-26T20:09:12.250Z,21.29
2018-07-26T20:11:42.065Z,21.01
2018-07-26T20:14:11.765Z,21.04
2018-07-26T20:16:41.789Z,21.02
2018-07-26T20:19:12.271Z,20.91
2018-07-26T20:21:42.135Z,20.83
2018-07-26T20:24:11.930Z,20.96
2018-07-26T20:26:41.635Z,20.86
2018-07-26T20:29:11.188Z,20.88
2018-07-26T20:31:40.912Z,20.86
2018-07-26T20:34:10.647Z,20.58
2018-07-26T20:36:40.132Z,20.51
2018-07-26T20:39:12.561Z,20.43
2018-07-26T20:41:42.471Z,20.29
2018-07-26T20:44:12.108Z,20.49
2018-07-26T20:46:42.006Z,20.71
2018-07-26T20:49:11.723Z,20.87
2018-07-26T20:51:41.806Z,20.84
2018-07-26T20:54:11.647Z,20.73
2018-07-26T20:56:41.259Z,20.65
2018-07-26T20:59:10.867Z,20.68
2018-07-26T21:01:40.642Z,20.68
2018-07-26T21:04:10.386Z,20.64
2018-07-26T21:06:40.134Z,20.48
2018-07-26T21:09:12.755Z,20.39
2018-07-26T21:11:42.882Z,20.45
2018-07-26T21:14:13.023Z,20.39
2018-07-26T21:16:42.693Z,20.44
2018-07-26T21:19:12.439Z,20.24
2018-07-26T21:21:42.620Z,20.23
2018-07-26T21:24:12.454Z,20.24
2018-07-26T21:26:42.198Z,20.24
2018-07-26T21:29:11.918Z,20.28
2018-07-26T21:31:41.767Z,20.37
2018-07-26T21:34:11.485Z,20.35
2018-07-26T21:36:41.250Z,20.42
2018-07-26T21:39:11.835Z,20.60
2018-07-26T21:41:41.803Z,20.40
2018-07-26T21:44:11.460Z,20.50
2018-07-26T21:46:41.174Z,20.47
2018-07-26T21:49:10.885Z,20.28
2018-07-26T21:51:40.550Z,20.20
2018-07-26T21:54:10.650Z,20.11
2018-07-26T21:56:40.322Z,20.06
2018-07-26T21:59:09.989Z,20.03
2018-07-26T22:01:40.259Z,20.05
2018-07-26T22:04:10.295Z,19.97
2018-07-26T22:06:40.384Z,19.89
2018-07-26T22:09:11.710Z,19.92
2018-07-26T22:11:41.921Z,19.87
2018-07-26T22:14:11.990Z,19.83
2018-07-26T22:16:42.020Z,19.70
2018-07-26T22:19:12.082Z,19.67
2018-07-26T22:21:42.227Z,19.73
2018-07-26T22:24:11.925Z,19.78
2018-07-26T22:26:41.545Z,19.81
2018-07-26T22:29:11.253Z,19.46
2018-07-26T22:31:41.214Z,19.63
2018-07-26T22:34:11.311Z,19.66
2018-07-26T22:36:41.330Z,19.64
2018-07-26T22:39:12.175Z,19.48
2018-07-26T22:41:42.603Z,19.43
2018-07-26T22:44:12.593Z,19.38
2018-07-26T22:46:42.657Z,19.25
2018-07-26T22:49:12.654Z,19.34
2018-07-26T22:51:42.868Z,19.27
2018-07-26T22:54:12.946Z,19.40
2018-07-26T22:56:42.661Z,19.13
2018-07-26T22:59:12.415Z,19.12
2018-07-26T23:01:42.579Z,19.04
2018-07-26T23:04:12.428Z,19.01
2018-07-26T23:06:42.541Z,19.07
2018-07-26T23:09:12.566Z,19.12
2018-07-26T23:11:42.743Z,18.96
2018-07-26T23:14:12.612Z,18.90
2018-07-26T23:16:42.642Z,18.84
2018-07-26T23:19:12.710Z,18.85
2018-07-26T23:21:42.587Z,18.86
2018-07-26T23:24:12.299Z,18.93
2018-07-26T23:26:42.072Z,19.04
2018-07-26T23:29:11.811Z,19.15
2018-07-26T23:31:41.979Z,19.08
2018-07-26T23:34:11.621Z,19.13
2018-07-26T23:36:41.458Z,19.11
2018-07-26T23:39:12.575Z,18.88
2018-07-26T23:41:42.569Z,18.95
2018-07-26T23:44:12.581Z,18.99
2018-07-26T23:46:42.203Z,18.92
2018-07-26T23:49:12.190Z,19.01
2018-07-26T23:51:41.827Z,18.98
2018-07-26T23:54:11.466Z,18.99
2018-07-26T23:56:41.103Z,19.04
2018-07-26T23:59:10.683Z,18.99
